sensor_id;sensor_type;location;lat;lon;timestamp;P1;durP1;ratioP1;P2;durP2;ratioP2
49738;SDS011;53662;50.114;8.626;2023-10-09T00:00:46;5.47;;;3.05;;
49738;SDS011;53662;50.114;8.626;2023-10-09T00:03:15;5.43;;;3.25;;
49738;SDS011;53662;50.114;8.626;2023-10-09T00:05:42;5.95;;;3.17;;
49738;SDS011;53662;50.114;8.626;2023-10-09T00:08:11;7.13;;;3.15;;
49738;SDS011;53662;50.114;8.626;2023-10-09T00:10:50;3.97;;;3.13;;
49738;SDS011;53662;50.114;8.626;2023-10-09T00:13:20;8.07;;;3.10;;
49738;SDS011;53662;50.114;8.626;2023-10-09T00:15:51;7.38;;;3.40;;
49738;SDS011;53662;50.114;8.626;2023-10-09T00:18:19;4.05;;;3.17;;
49738;SDS011;53662;50.114;8.626;2023-10-09T00:20:53;6.15;;;3.05;;
49738;SDS011;53662;50.114;8.626;2023-10-09T00:23:20;4.68;;;3.33;;
49738;SDS011;53662;50.114;8.626;2023-10-09T00:25:50;15.30;;;2.95;;
49738;SDS011;53662;50.114;8.626;2023-10-09T00:28:38;4.18;;;3.45;;
49738;SDS011;53662;50.114;8.626;2023-10-09T00:31:08;8.40;;;3.22;;
49738;SDS011;53662;50.114;8.626;2023-10-09T00:33:41;8.65;;;3.13;;
49738;SDS011;53662;50.114;8.626;2023-10-09T00:36:07;4.32;;;2.90;;
49738;SDS011;53662;50.114;8.626;2023-10-09T00:38:37;6.20;;;3.33;;
49738;SDS011;53662;50.114;8.626;2023-10-09T00:41:15;4.78;;;2.75;;
49738;SDS011;53662;50.114;8.626;2023-10-09T00:43:45;7.82;;;3.20;;
49738;SDS011;53662;50.114;8.626;2023-10-09T00:46:15;5.88;;;3.22;;
49738;SDS011;53662;50.114;8.626;2023-10-09T00:48:44;6.72;;;3.10;;
49738;SDS011;53662;50.114;8.626;2023-10-09T00:51:12;5.15;;;3.17;;
49738;SDS011;53662;50.114;8.626;2023-10-09T00:53:47;6.97;;;3.13;;
49738;SDS011;53662;50.114;8.626;2023-10-09T00:56:16;4.60;;;3.28;;
49738;SDS011;53662;50.114;8.626;2023-10-09T00:58:51;3.33;;;3.10;;
49738;SDS011;53662;50.114;8.626;2023-10-09T01:01:21;4.75;;;3.03;;
49738;SDS011;53662;50.114;8.626;2023-10-09T01:03:52;5.72;;;3.35;;
49738;SDS011;53662;50.114;8.626;2023-10-09T01:06:19;8.82;;;3.83;;
49738;SDS011;53662;50.114;8.626;2023-10-09T01:08:46;9.77;;;3.53;;
49738;SDS011;53662;50.114;8.626;2023-10-09T01:11:32;5.75;;;3.28;;
49738;SDS011;53662;50.114;8.626;2023-10-09T01:13:59;3.25;;;2.92;;
49738;SDS011;53662;50.114;8.626;2023-10-09T01:16:45;3.47;;;3.03;;
49738;SDS011;53662;50.114;8.626;2023-10-09T01:19:12;4.82;;;3.20;;
49738;SDS011;53662;50.114;8.626;2023-10-09T01:21:45;5.35;;;2.97;;
49738;SDS011;53662;50.114;8.626;2023-10-09T01:24:11;5.05;;;3.13;;
49738;SDS011;53662;50.114;8.626;2023-10-09T01:26:39;4.95;;;3.10;;
49738;SDS011;53662;50.114;8.626;2023-10-09T01:29:09;4.65;;;3.25;;
49738;SDS011;53662;50.114;8.626;2023-10-09T01:31:40;6.10;;;3.60;;
49738;SDS011;53662;50.114;8.626;2023-10-09T01:34:12;4.15;;;3.42;;
49738;SDS011;53662;50.114;8.626;2023-10-09T01:36:41;9.30;;;3.42;;
49738;SDS011;53662;50.114;8.626;2023-10-09T01:39:07;5.85;;;3.40;;
49738;SDS011;53662;50.114;8.626;2023-10-09T01:41:47;7.65;;;3.15;;
49738;SDS011;53662;50.114;8.626;2023-10-09T01:44:13;7.80;;;3.33;;
49738;SDS011;53662;50.114;8.626;2023-10-09T01:46:41;6.00;;;3.40;;
49738;SDS011;53662;50.114;8.626;2023-10-09T01:49:07;12.02;;;3.28;;
49738;SDS011;53662;50.114;8.626;2023-10-09T01:51:42;5.60;;;3.28;;
49738;SDS011;53662;50.114;8.626;2023-10-09T01:54:08;8.85;;;3.47;;
49738;SDS011;53662;50.114;8.626;2023-10-09T01:56:41;7.82;;;3.13;;
49738;SDS011;53662;50.114;8.626;2023-10-09T01:59:11;6.78;;;3.30;;
49738;SDS011;53662;50.114;8.626;2023-10-09T02:01:37;3.97;;;3.22;;
49738;SDS011;53662;50.114;8.626;2023-10-09T02:04:07;4.18;;;2.85;;
49738;SDS011;53662;50.114;8.626;2023-10-09T02:06:38;6.07;;;3.15;;
49738;SDS011;53662;50.114;8.626;2023-10-09T02:09:05;4.57;;;3.65;;
49738;SDS011;53662;50.114;8.626;2023-10-09T02:11:32;3.72;;;3.42;;
49738;SDS011;53662;50.114;8.626;2023-10-09T02:14:04;12.88;;;4.90;;
49738;SDS011;53662;50.114;8.626;2023-10-09T02:16:44;6.10;;;3.92;;
49738;SDS011;53662;50.114;8.626;2023-10-09T02:19:09;9.15;;;5.18;;
49738;SDS011;53662;50.114;8.626;2023-10-09T02:21:54;7.85;;;5.93;;
49738;SDS011;53662;50.114;8.626;2023-10-09T02:24:22;12.20;;;5.43;;
49738;SDS011;53662;50.114;8.626;2023-10-09T02:27:06;10.63;;;5.28;;
49738;SDS011;53662;50.114;8.626;2023-10-09T02:29:32;12.82;;;5.10;;
49738;SDS011;53662;50.114;8.626;2023-10-09T02:32:03;10.23;;;5.53;;
49738;SDS011;53662;50.114;8.626;2023-10-09T02:34:38;12.13;;;5.47;;
49738;SDS011;53662;50.114;8.626;2023-10-09T02:37:04;14.73;;;5.10;;
49738;SDS011;53662;50.114;8.626;2023-10-09T02:39:38;12.98;;;5.40;;
49738;SDS011;53662;50.114;8.626;2023-10-09T02:42:12;9.77;;;5.20;;
49738;SDS011;53662;50.114;8.626;2023-10-09T02:44:38;12.32;;;5.90;;
49738;SDS011;53662;50.114;8.626;2023-10-09T02:47:05;13.07;;;5.80;;
49738;SDS011;53662;50.114;8.626;2023-10-09T02:49:37;12.25;;;5.40;;
49738;SDS011;53662;50.114;8.626;2023-10-09T02:52:05;6.95;;;4.97;;
49738;SDS011;53662;50.114;8.626;2023-10-09T02:54:32;11.93;;;5.10;;
49738;SDS011;53662;50.114;8.626;2023-10-09T02:57:06;10.40;;;6.07;;
49738;SDS011;53662;50.114;8.626;2023-10-09T02:59:33;12.10;;;5.22;;
49738;SDS011;53662;50.114;8.626;2023-10-09T03:01:59;9.25;;;4.88;;
49738;SDS011;53662;50.114;8.626;2023-10-09T03:04:26;5.18;;;4.65;;
49738;SDS011;53662;50.114;8.626;2023-10-09T03:06:59;10.77;;;4.65;;
49738;SDS011;53662;50.114;8.626;2023-10-09T03:09:25;10.23;;;4.95;;
49738;SDS011;53662;50.114;8.626;2023-10-09T03:12:01;11.93;;;5.10;;
49738;SDS011;53662;50.114;8.626;2023-10-09T03:14:30;8.23;;;4.55;;
49738;SDS011;53662;50.114;8.626;2023-10-09T03:16:57;7.10;;;5.05;;
49738;SDS011;53662;50.114;8.626;2023-10-09T03:19:26;9.60;;;4.38;;
49738;SDS011;53662;50.114;8.626;2023-10-09T03:21:55;9.57;;;4.75;;
49738;SDS011;53662;50.114;8.626;2023-10-09T03:24:25;10.18;;;4.93;;
49738;SDS011;53662;50.114;8.626;2023-10-09T03:26:55;8.70;;;4.90;;
49738;SDS011;53662;50.114;8.626;2023-10-09T03:29:22;6.72;;;4.55;;
49738;SDS011;53662;50.114;8.626;2023-10-09T03:31:48;9.27;;;5.00;;
49738;SDS011;53662;50.114;8.626;2023-10-09T03:34:16;6.50;;;5.10;;
49738;SDS011;53662;50.114;8.626;2023-10-09T03:36:43;9.70;;;5.15;;
49738;SDS011;53662;50.114;8.626;2023-10-09T03:39:21;11.30;;;4.93;;
49738;SDS011;53662;50.114;8.626;2023-10-09T03:42:06;10.20;;;4.70;;
49738;SDS011;53662;50.114;8.626;2023-10-09T03:44:43;10.80;;;5.10;;
49738;SDS011;53662;50.114;8.626;2023-10-09T03:47:14;8.43;;;5.00;;
49738;SDS011;53662;50.114;8.626;2023-10-09T03:49:42;12.23;;;4.82;;
49738;SDS011;53662;50.114;8.626;2023-10-09T03:52:08;12.20;;;5.03;;
49738;SDS011;53662;50.114;8.626;2023-10-09T03:54:34;8.45;;;5.10;;
49738;SDS011;53662;50.114;8.626;2023-10-09T03:57:00;10.50;;;4.68;;
49738;SDS011;53662;50.114;8.626;2023-10-09T03:59:27;10.38;;;5.18;;
49738;SDS011;53662;50.114;8.626;2023-10-09T04:01:57;8.15;;;5.00;;
49738;SDS011;53662;50.114;8.626;2023-10-09T04:04:23;10.30;;;5.15;;
49738;SDS011;53662;50.114;8.626;2023-10-09T04:06:49;10.25;;;5.25;;
49738;SDS011;53662;50.114;8.626;2023-10-09T04:09:18;9.63;;;5.25;;
49738;SDS011;53662;50.114;8.626;2023-10-09T04:11:45;6.95;;;5.20;;
49738;SDS011;53662;50.114;8.626;2023-10-09T04:14:22;10.70;;;5.15;;
49738;SDS011;53662;50.114;8.626;2023-10-09T04:16:51;8.60;;;4.78;;
49738;SDS011;53662;50.114;8.626;2023-10-09T04:19:21;12.27;;;5.10;;
49738;SDS011;53662;50.114;8.626;2023-10-09T04:21:47;12.23;;;5.28;;
49738;SDS011;53662;50.114;8.626;2023-10-09T04:24:13;8.50;;;4.90;;
49738;SDS011;53662;50.114;8.626;2023-10-09T04:26:40;16.55;;;5.38;;
49738;SDS011;53662;50.114;8.626;2023-10-09T04:29:15;10.52;;;5.85;;
49738;SDS011;53662;50.114;8.626;2023-10-09T04:32:02;9.13;;;6.13;;
49738;SDS011;53662;50.114;8.626;2023-10-09T04:34:32;8.25;;;5.95;;
49738;SDS011;53662;50.114;8.626;2023-10-09T04:37:06;6.65;;;5.80;;
49738;SDS011;53662;50.114;8.626;2023-10-09T04:42:11;11.30;;;6.35;;
49738;SDS011;53662;50.114;8.626;2023-10-09T04:44:44;13.68;;;6.15;;
49738;SDS011;53662;50.114;8.626;2023-10-09T04:47:32;10.50;;;6.07;;
49738;SDS011;53662;50.114;8.626;2023-10-09T04:50:08;14.52;;;6.32;;
49738;SDS011;53662;50.114;8.626;2023-10-09T04:52:37;18.23;;;7.07;;
49738;SDS011;53662;50.114;8.626;2023-10-09T04:55:03;17.23;;;6.07;;
49738;SDS011;53662;50.114;8.626;2023-10-09T04:57:35;11.70;;;6.97;;
49738;SDS011;53662;50.114;8.626;2023-10-09T05:00:17;12.27;;;7.03;;
49738;SDS011;53662;50.114;8.626;2023-10-09T05:02:59;14.38;;;6.15;;
49738;SDS011;53662;50.114;8.626;2023-10-09T05:05:35;16.80;;;6.78;;
49738;SDS011;53662;50.114;8.626;2023-10-09T05:10:46;14.13;;;7.00;;
49738;SDS011;53662;50.114;8.626;2023-10-09T05:16:06;11.33;;;7.03;;
49738;SDS011;53662;50.114;8.626;2023-10-09T05:18:33;16.55;;;6.90;;
49738;SDS011;53662;50.114;8.626;2023-10-09T05:21:02;15.00;;;6.68;;
49738;SDS011;53662;50.114;8.626;2023-10-09T05:23:37;11.95;;;6.90;;
49738;SDS011;53662;50.114;8.626;2023-10-09T05:26:09;12.68;;;6.57;;
49738;SDS011;53662;50.114;8.626;2023-10-09T05:28:54;18.52;;;7.55;;
49738;SDS011;53662;50.114;8.626;2023-10-09T05:31:25;13.93;;;6.90;;
49738;SDS011;53662;50.114;8.626;2023-10-09T05:34:20;16.50;;;7.20;;
49738;SDS011;53662;50.114;8.626;2023-10-09T05:36:46;11.77;;;6.50;;
49738;SDS011;53662;50.114;8.626;2023-10-09T05:39:13;8.93;;;6.15;;
49738;SDS011;53662;50.114;8.626;2023-10-09T05:42:06;55.13;;;8.93;;
49738;SDS011;53662;50.114;8.626;2023-10-09T05:44:37;14.43;;;6.95;;
49738;SDS011;53662;50.114;8.626;2023-10-09T05:47:41;16.38;;;6.75;;
49738;SDS011;53662;50.114;8.626;2023-10-09T05:50:27;17.90;;;7.22;;
49738;SDS011;53662;50.114;8.626;2023-10-09T05:52:54;19.48;;;7.20;;
49738;SDS011;53662;50.114;8.626;2023-10-09T05:55:20;12.63;;;7.18;;
49738;SDS011;53662;50.114;8.626;2023-10-09T05:58:05;19.15;;;6.43;;
49738;SDS011;53662;50.114;8.626;2023-10-09T06:00:50;17.27;;;7.25;;
49738;SDS011;53662;50.114;8.626;2023-10-09T06:03:35;13.73;;;6.25;;
49738;SDS011;53662;50.114;8.626;2023-10-09T06:06:13;17.92;;;6.05;;
49738;SDS011;53662;50.114;8.626;2023-10-09T06:11:53;19.58;;;6.53;;
49738;SDS011;53662;50.114;8.626;2023-10-09T06:14:20;16.65;;;6.78;;
49738;SDS011;53662;50.114;8.626;2023-10-09T06:16:55;13.98;;;5.45;;
49738;SDS011;53662;50.114;8.626;2023-10-09T06:19:21;18.00;;;6.78;;
49738;SDS011;53662;50.114;8.626;2023-10-09T06:21:47;11.82;;;6.38;;
49738;SDS011;53662;50.114;8.626;2023-10-09T06:24:28;12.23;;;6.07;;
49738;SDS011;53662;50.114;8.626;2023-10-09T06:27:10;19.45;;;6.28;;
49738;SDS011;53662;50.114;8.626;2023-10-09T06:29:37;14.95;;;7.10;;
49738;SDS011;53662;50.114;8.626;2023-10-09T06:32:15;14.70;;;6.57;;
49738;SDS011;53662;50.114;8.626;2023-10-09T06:34:59;18.02;;;7.10;;
49738;SDS011;53662;50.114;8.626;2023-10-09T06:40:25;22.50;;;7.72;;
49738;SDS011;53662;50.114;8.626;2023-10-09T06:43:21;18.98;;;6.95;;
49738;SDS011;53662;50.114;8.626;2023-10-09T06:45:50;20.75;;;7.75;;
49738;SDS011;53662;50.114;8.626;2023-10-09T06:48:22;21.38;;;7.70;;
49738;SDS011;53662;50.114;8.626;2023-10-09T06:51:04;23.98;;;7.35;;
49738;SDS011;53662;50.114;8.626;2023-10-09T06:53:49;19.73;;;7.50;;
49738;SDS011;53662;50.114;8.626;2023-10-09T06:56:18;22.13;;;7.68;;
49738;SDS011;53662;50.114;8.626;2023-10-09T06:58:54;21.45;;;6.47;;
49738;SDS011;53662;50.114;8.626;2023-10-09T07:01:20;10.50;;;6.78;;
49738;SDS011;53662;50.114;8.626;2023-10-09T07:03:52;15.93;;;7.00;;
49738;SDS011;53662;50.114;8.626;2023-10-09T07:06:18;13.95;;;7.55;;
49738;SDS011;53662;50.114;8.626;2023-10-09T07:09:11;20.75;;;7.68;;
49738;SDS011;53662;50.114;8.626;2023-10-09T07:11:37;18.27;;;7.22;;
49738;SDS011;53662;50.114;8.626;2023-10-09T07:14:11;15.25;;;6.18;;
49738;SDS011;53662;50.114;8.626;2023-10-09T07:19:30;14.10;;;6.85;;
49738;SDS011;53662;50.114;8.626;2023-10-09T07:22:02;21.48;;;7.60;;
49738;SDS011;53662;50.114;8.626;2023-10-09T07:24:29;12.52;;;7.55;;
49738;SDS011;53662;50.114;8.626;2023-10-09T07:27:17;21.00;;;7.70;;
49738;SDS011;53662;50.114;8.626;2023-10-09T07:30:03;15.70;;;7.03;;
49738;SDS011;53662;50.114;8.626;2023-10-09T07:32:50;15.52;;;6.75;;
49738;SDS011;53662;50.114;8.626;2023-10-09T07:35:17;12.35;;;5.80;;
49738;SDS011;53662;50.114;8.626;2023-10-09T07:38:03;15.90;;;7.65;;
49738;SDS011;53662;50.114;8.626;2023-10-09T07:40:33;16.45;;;5.95;;
49738;SDS011;53662;50.114;8.626;2023-10-09T07:43:16;19.30;;;6.68;;
49738;SDS011;53662;50.114;8.626;2023-10-09T07:45:42;14.18;;;5.80;;
49738;SDS011;53662;50.114;8.626;2023-10-09T07:48:24;16.25;;;6.78;;
49738;SDS011;53662;50.114;8.626;2023-10-09T07:51:03;24.23;;;7.07;;
49738;SDS011;53662;50.114;8.626;2023-10-09T07:53:30;14.35;;;6.55;;
49738;SDS011;53662;50.114;8.626;2023-10-09T07:56:08;17.63;;;6.45;;
49738;SDS011;53662;50.114;8.626;2023-10-09T07:58:34;13.25;;;6.38;;
49738;SDS011;53662;50.114;8.626;2023-10-09T08:01:11;20.30;;;6.82;;
49738;SDS011;53662;50.114;8.626;2023-10-09T08:03:56;14.98;;;6.47;;
49738;SDS011;53662;50.114;8.626;2023-10-09T08:06:36;19.75;;;5.75;;
49738;SDS011;53662;50.114;8.626;2023-10-09T08:09:07;19.92;;;6.03;;
49738;SDS011;53662;50.114;8.626;2023-10-09T08:11:40;21.55;;;6.80;;
49738;SDS011;53662;50.114;8.626;2023-10-09T08:14:06;18.20;;;5.47;;
49738;SDS011;53662;50.114;8.626;2023-10-09T08:16:47;25.85;;;6.80;;
49738;SDS011;53662;50.114;8.626;2023-10-09T08:19:13;13.00;;;6.43;;
49738;SDS011;53662;50.114;8.626;2023-10-09T08:21:58;17.10;;;6.22;;
49738;SDS011;53662;50.114;8.626;2023-10-09T08:24:42;17.90;;;6.13;;
49738;SDS011;53662;50.114;8.626;2023-10-09T08:27:17;20.65;;;5.50;;
49738;SDS011;53662;50.114;8.626;2023-10-09T08:30:05;18.17;;;6.30;;
49738;SDS011;53662;50.114;8.626;2023-10-09T08:32:53;18.00;;;6.20;;
49738;SDS011;53662;50.114;8.626;2023-10-09T08:35:26;14.93;;;5.88;;
49738;SDS011;53662;50.114;8.626;2023-10-09T08:37:59;12.55;;;5.43;;
49738;SDS011;53662;50.114;8.626;2023-10-09T08:40:33;15.40;;;6.00;;
49738;SDS011;53662;50.114;8.626;2023-10-09T08:43:15;14.85;;;5.43;;
49738;SDS011;53662;50.114;8.626;2023-10-09T08:46:02;12.63;;;6.50;;
49738;SDS011;53662;50.114;8.626;2023-10-09T08:48:27;16.30;;;5.93;;
49738;SDS011;53662;50.114;8.626;2023-10-09T08:50:54;16.13;;;5.88;;
49738;SDS011;53662;50.114;8.626;2023-10-09T08:53:21;16.17;;;6.55;;
49738;SDS011;53662;50.114;8.626;2023-10-09T08:55:48;16.83;;;6.18;;
49738;SDS011;53662;50.114;8.626;2023-10-09T08:58:14;15.50;;;6.78;;
49738;SDS011;53662;50.114;8.626;2023-10-09T09:00:51;17.05;;;5.88;;
49738;SDS011;53662;50.114;8.626;2023-10-09T09:03:20;20.88;;;6.68;;
49738;SDS011;53662;50.114;8.626;2023-10-09T09:05:56;20.67;;;5.68;;
49738;SDS011;53662;50.114;8.626;2023-10-09T09:08:23;25.80;;;6.68;;
49738;SDS011;53662;50.114;8.626;2023-10-09T09:11:03;20.75;;;7.35;;
49738;SDS011;53662;50.114;8.626;2023-10-09T09:13:43;23.55;;;6.93;;
49738;SDS011;53662;50.114;8.626;2023-10-09T09:16:16;14.45;;;7.00;;
49738;SDS011;53662;50.114;8.626;2023-10-09T09:19:15;25.63;;;8.32;;
49738;SDS011;53662;50.114;8.626;2023-10-09T09:21:42;18.95;;;6.43;;
49738;SDS011;53662;50.114;8.626;2023-10-09T09:24:12;18.70;;;7.10;;
49738;SDS011;53662;50.114;8.626;2023-10-09T09:26:52;17.38;;;6.28;;
49738;SDS011;53662;50.114;8.626;2023-10-09T09:32:04;16.00;;;6.45;;
49738;SDS011;53662;50.114;8.626;2023-10-09T09:34:52;24.55;;;7.95;;
49738;SDS011;53662;50.114;8.626;2023-10-09T09:37:29;21.33;;;7.32;;
49738;SDS011;53662;50.114;8.626;2023-10-09T09:39:58;19.38;;;7.15;;
49738;SDS011;53662;50.114;8.626;2023-10-09T09:42:25;16.65;;;6.63;;
49738;SDS011;53662;50.114;8.626;2023-10-09T09:44:53;15.88;;;6.78;;
49738;SDS011;53662;50.114;8.626;2023-10-09T09:47:20;11.50;;;6.53;;
49738;SDS011;53662;50.114;8.626;2023-10-09T09:49:52;14.55;;;5.68;;
49738;SDS011;53662;50.114;8.626;2023-10-09T09:52:18;13.85;;;6.18;;
49738;SDS011;53662;50.114;8.626;2023-10-09T09:54:49;17.37;;;5.93;;
49738;SDS011;53662;50.114;8.626;2023-10-09T09:57:15;24.77;;;7.47;;
49738;SDS011;53662;50.114;8.626;2023-10-09T09:59:50;17.88;;;6.28;;
49738;SDS011;53662;50.114;8.626;2023-10-09T10:02:24;19.58;;;6.53;;
49738;SDS011;53662;50.114;8.626;2023-10-09T10:04:54;16.73;;;5.85;;
49738;SDS011;53662;50.114;8.626;2023-10-09T10:07:21;18.48;;;7.03;;
49738;SDS011;53662;50.114;8.626;2023-10-09T10:09:48;16.45;;;6.70;;
49738;SDS011;53662;50.114;8.626;2023-10-09T10:12:49;20.17;;;6.45;;
49738;SDS011;53662;50.114;8.626;2023-10-09T10:15:06;13.27;;;6.05;;
49738;SDS011;53662;50.114;8.626;2023-10-09T10:20:24;23.33;;;7.47;;
49738;SDS011;53662;50.114;8.626;2023-10-09T10:22:50;23.02;;;6.72;;
49738;SDS011;53662;50.114;8.626;2023-10-09T10:31:10;20.92;;;6.93;;
49738;SDS011;53662;50.114;8.626;2023-10-09T10:36:20;18.48;;;6.80;;
49738;SDS011;53662;50.114;8.626;2023-10-09T10:39:02;22.77;;;6.22;;
49738;SDS011;53662;50.114;8.626;2023-10-09T10:41:29;15.35;;;6.28;;
49738;SDS011;53662;50.114;8.626;2023-10-09T10:44:01;27.13;;;7.43;;
49738;SDS011;53662;50.114;8.626;2023-10-09T10:46:47;18.67;;;6.90;;
49738;SDS011;53662;50.114;8.626;2023-10-09T10:49:19;24.15;;;7.38;;
49738;SDS011;53662;50.114;8.626;2023-10-09T10:51:49;10.82;;;6.30;;
49738;SDS011;53662;50.114;8.626;2023-10-09T10:54:40;17.92;;;6.65;;
49738;SDS011;53662;50.114;8.626;2023-10-09T10:57:19;22.00;;;5.93;;
49738;SDS011;53662;50.114;8.626;2023-10-09T10:59:53;15.55;;;6.35;;
49738;SDS011;53662;50.114;8.626;2023-10-09T11:02:30;24.48;;;6.35;;
49738;SDS011;53662;50.114;8.626;2023-10-09T11:05:02;19.63;;;5.88;;
49738;SDS011;53662;50.114;8.626;2023-10-09T11:07:47;12.88;;;5.80;;
49738;SDS011;53662;50.114;8.626;2023-10-09T11:10:21;21.73;;;6.70;;
49738;SDS011;53662;50.114;8.626;2023-10-09T11:12:53;16.85;;;7.07;;
49738;SDS011;53662;50.114;8.626;2023-10-09T11:15:40;20.42;;;6.45;;
49738;SDS011;53662;50.114;8.626;2023-10-09T11:18:12;13.10;;;5.38;;
49738;SDS011;53662;50.114;8.626;2023-10-09T11:20:44;14.93;;;6.68;;
49738;SDS011;53662;50.114;8.626;2023-10-09T11:23:21;13.60;;;6.40;;
49738;SDS011;53662;50.114;8.626;2023-10-09T11:26:00;17.30;;;5.93;;
49738;SDS011;53662;50.114;8.626;2023-10-09T11:34:24;15.48;;;5.68;;
49738;SDS011;53662;50.114;8.626;2023-10-09T11:39:36;12.98;;;5.85;;
49738;SDS011;53662;50.114;8.626;2023-10-09T11:42:15;16.90;;;6.53;;
49738;SDS011;53662;50.114;8.626;2023-10-09T11:45:00;18.98;;;6.40;;
49738;SDS011;53662;50.114;8.626;2023-10-09T11:47:34;16.83;;;6.38;;
49738;SDS011;53662;50.114;8.626;2023-10-09T11:50:00;18.70;;;6.17;;
49738;SDS011;53662;50.114;8.626;2023-10-09T11:52:30;19.00;;;6.07;;
49738;SDS011;53662;50.114;8.626;2023-10-09T11:54:57;16.08;;;5.68;;
49738;SDS011;53662;50.114;8.626;2023-10-09T11:57:26;18.45;;;6.40;;
49738;SDS011;53662;50.114;8.626;2023-10-09T11:59:58;16.00;;;6.10;;
49738;SDS011;53662;50.114;8.626;2023-10-09T12:02:35;18.80;;;7.65;;
49738;SDS011;53662;50.114;8.626;2023-10-09T12:05:09;17.88;;;5.28;;
49738;SDS011;53662;50.114;8.626;2023-10-09T12:07:35;14.15;;;5.50;;
49738;SDS011;53662;50.114;8.626;2023-10-09T12:10:03;15.73;;;6.00;;
49738;SDS011;53662;50.114;8.626;2023-10-09T12:12:30;16.10;;;5.70;;
49738;SDS011;53662;50.114;8.626;2023-10-09T12:14:56;13.60;;;5.63;;
49738;SDS011;53662;50.114;8.626;2023-10-09T12:17:22;14.02;;;5.72;;
49738;SDS011;53662;50.114;8.626;2023-10-09T12:19:50;16.63;;;5.72;;
49738;SDS011;53662;50.114;8.626;2023-10-09T12:22:16;8.65;;;5.43;;
49738;SDS011;53662;50.114;8.626;2023-10-09T12:24:42;17.70;;;6.22;;
49738;SDS011;53662;50.114;8.626;2023-10-09T12:27:08;14.20;;;5.15;;
49738;SDS011;53662;50.114;8.626;2023-10-09T12:29:37;15.30;;;4.82;;
49738;SDS011;53662;50.114;8.626;2023-10-09T12:32:09;15.93;;;5.53;;
49738;SDS011;53662;50.114;8.626;2023-10-09T12:34:36;24.25;;;5.28;;
49738;SDS011;53662;50.114;8.626;2023-10-09T12:37:03;17.75;;;5.00;;
49738;SDS011;53662;50.114;8.626;2023-10-09T12:39:29;9.20;;;5.32;;
49738;SDS011;53662;50.114;8.626;2023-10-09T12:42:01;16.00;;;5.57;;
49738;SDS011;53662;50.114;8.626;2023-10-09T12:44:37;8.25;;;4.45;;
49738;SDS011;53662;50.114;8.626;2023-10-09T12:47:07;13.75;;;5.45;;
49738;SDS011;53662;50.114;8.626;2023-10-09T12:49:36;15.45;;;4.82;;
49738;SDS011;53662;50.114;8.626;2023-10-09T12:52:06;12.25;;;4.45;;
49738;SDS011;53662;50.114;8.626;2023-10-09T12:54:40;14.13;;;5.22;;
49738;SDS011;53662;50.114;8.626;2023-10-09T12:57:06;18.67;;;5.00;;
49738;SDS011;53662;50.114;8.626;2023-10-09T12:59:38;9.73;;;5.00;;
49738;SDS011;53662;50.114;8.626;2023-10-09T13:02:05;11.10;;;5.32;;
49738;SDS011;53662;50.114;8.626;2023-10-09T13:04:31;11.98;;;5.30;;
49738;SDS011;53662;50.114;8.626;2023-10-09T13:06:57;13.20;;;5.90;;
49738;SDS011;53662;50.114;8.626;2023-10-09T13:09:29;18.95;;;5.13;;
49738;SDS011;53662;50.114;8.626;2023-10-09T13:12:00;12.70;;;5.80;;
49738;SDS011;53662;50.114;8.626;2023-10-09T13:14:27;11.73;;;4.88;;
49738;SDS011;53662;50.114;8.626;2023-10-09T13:16:53;10.18;;;4.88;;
49738;SDS011;53662;50.114;8.626;2023-10-09T13:19:19;20.08;;;5.85;;
49738;SDS011;53662;50.114;8.626;2023-10-09T13:21:49;20.52;;;5.78;;
49738;SDS011;53662;50.114;8.626;2023-10-09T13:24:15;13.10;;;5.57;;
49738;SDS011;53662;50.114;8.626;2023-10-09T13:26:44;9.38;;;4.93;;
49738;SDS011;53662;50.114;8.626;2023-10-09T13:29:11;17.00;;;5.47;;
49738;SDS011;53662;50.114;8.626;2023-10-09T13:31:37;10.38;;;5.15;;
49738;SDS011;53662;50.114;8.626;2023-10-09T13:34:11;9.73;;;5.40;;
49738;SDS011;53662;50.114;8.626;2023-10-09T13:36:40;11.07;;;4.70;;
49738;SDS011;53662;50.114;8.626;2023-10-09T13:39:14;12.02;;;4.75;;
49738;SDS011;53662;50.114;8.626;2023-10-09T13:41:56;15.57;;;5.28;;
49738;SDS011;53662;50.114;8.626;2023-10-09T13:44:29;13.77;;;5.90;;
49738;SDS011;53662;50.114;8.626;2023-10-09T13:47:00;12.48;;;5.40;;
49738;SDS011;53662;50.114;8.626;2023-10-09T13:49:27;12.55;;;5.03;;
49738;SDS011;53662;50.114;8.626;2023-10-09T13:51:56;15.18;;;5.65;;
49738;SDS011;53662;50.114;8.626;2023-10-09T13:54:23;11.55;;;5.35;;
49738;SDS011;53662;50.114;8.626;2023-10-09T13:57:04;10.00;;;5.30;;
49738;SDS011;53662;50.114;8.626;2023-10-09T13:59:30;9.75;;;5.15;;
49738;SDS011;53662;50.114;8.626;2023-10-09T14:01:56;7.00;;;5.63;;
49738;SDS011;53662;50.114;8.626;2023-10-09T14:04:24;12.02;;;5.55;;
49738;SDS011;53662;50.114;8.626;2023-10-09T14:06:52;12.57;;;5.53;;
49738;SDS011;53662;50.114;8.626;2023-10-09T14:09:24;14.05;;;5.65;;
49738;SDS011;53662;50.114;8.626;2023-10-09T14:11:57;11.15;;;5.15;;
49738;SDS011;53662;50.114;8.626;2023-10-09T14:14:31;11.60;;;5.63;;
49738;SDS011;53662;50.114;8.626;2023-10-09T14:16:57;14.00;;;5.70;;
49738;SDS011;53662;50.114;8.626;2023-10-09T14:19:23;9.63;;;5.25;;
49738;SDS011;53662;50.114;8.626;2023-10-09T14:21:49;12.55;;;5.45;;
49738;SDS011;53662;50.114;8.626;2023-10-09T14:24:16;14.38;;;5.97;;
49738;SDS011;53662;50.114;8.626;2023-10-09T14:26:43;51.30;;;8.15;;
49738;SDS011;53662;50.114;8.626;2023-10-09T14:29:10;57.28;;;8.73;;
49738;SDS011;53662;50.114;8.626;2023-10-09T14:31:41;25.02;;;6.78;;
49738;SDS011;53662;50.114;8.626;2023-10-09T14:34:07;30.77;;;6.57;;
49738;SDS011;53662;50.114;8.626;2023-10-09T14:36:34;38.83;;;7.15;;
49738;SDS011;53662;50.114;8.626;2023-10-09T14:39:00;23.08;;;6.35;;
49738;SDS011;53662;50.114;8.626;2023-10-09T14:41:27;18.63;;;6.50;;
49738;SDS011;53662;50.114;8.626;2023-10-09T14:43:58;30.45;;;6.72;;
49738;SDS011;53662;50.114;8.626;2023-10-09T14:46:24;30.52;;;8.23;;
49738;SDS011;53662;50.114;8.626;2023-10-09T14:48:54;27.80;;;7.20;;
49738;SDS011;53662;50.114;8.626;2023-10-09T14:51:20;25.65;;;7.10;;
49738;SDS011;53662;50.114;8.626;2023-10-09T14:56:18;14.48;;;7.00;;
49738;SDS011;53662;50.114;8.626;2023-10-09T14:58:53;13.95;;;6.57;;
49738;SDS011;53662;50.114;8.626;2023-10-09T15:01:21;12.25;;;5.93;;
49738;SDS011;53662;50.114;8.626;2023-10-09T15:03:49;23.70;;;6.55;;
49738;SDS011;53662;50.114;8.626;2023-10-09T15:06:18;26.40;;;7.63;;
49738;SDS011;53662;50.114;8.626;2023-10-09T15:08:44;42.55;;;9.30;;
49738;SDS011;53662;50.114;8.626;2023-10-09T15:11:11;27.13;;;7.53;;
49738;SDS011;53662;50.114;8.626;2023-10-09T15:13:39;21.23;;;7.07;;
49738;SDS011;53662;50.114;8.626;2023-10-09T15:16:05;15.55;;;6.65;;
49738;SDS011;53662;50.114;8.626;2023-10-09T15:18:31;17.85;;;5.95;;
49738;SDS011;53662;50.114;8.626;2023-10-09T15:21:02;17.70;;;7.03;;
49738;SDS011;53662;50.114;8.626;2023-10-09T15:23:28;13.73;;;6.22;;
49738;SDS011;53662;50.114;8.626;2023-10-09T15:25:54;15.85;;;7.15;;
49738;SDS011;53662;50.114;8.626;2023-10-09T15:28:20;16.45;;;6.13;;
49738;SDS011;53662;50.114;8.626;2023-10-09T15:30:47;19.77;;;5.78;;
49738;SDS011;53662;50.114;8.626;2023-10-09T15:33:14;20.00;;;5.88;;
49738;SDS011;53662;50.114;8.626;2023-10-09T15:35:44;13.45;;;6.35;;
49738;SDS011;53662;50.114;8.626;2023-10-09T15:38:14;19.13;;;6.30;;
49738;SDS011;53662;50.114;8.626;2023-10-09T15:40:41;22.83;;;5.90;;
49738;SDS011;53662;50.114;8.626;2023-10-09T15:43:08;14.50;;;6.85;;
49738;SDS011;53662;50.114;8.626;2023-10-09T15:45:42;13.48;;;6.38;;
49738;SDS011;53662;50.114;8.626;2023-10-09T15:48:09;15.43;;;6.22;;